createdAt,value
2024-01-11T00:00:03.553Z,571.00
2024-01-11T00:01:03.539Z,570.00
2024-01-11T00:02:03.525Z,575.00
2024-01-11T00:03:03.502Z,574.00
2024-01-11T00:04:03.470Z,573.00
2024-01-11T00:05:03.587Z,573.00
2024-01-11T00:06:03.625Z,571.00
2024-01-11T00:07:03.459Z,568.00
2024-01-11T00:08:03.452Z,565.00
2024-01-11T00:09:03.383Z,565.00
2024-01-11T00:10:03.368Z,565.00
2024-01-11T00:11:03.369Z,561.00
2024-01-11T00:12:03.338Z,563.00
2024-01-11T00:13:03.312Z,566.00
2024-01-11T00:14:03.356Z,563.00
2024-01-11T00:15:03.317Z,563.00
2024-01-11T00:16:03.276Z,564.00
2024-01-11T00:17:03.272Z,562.00
2024-01-11T00:18:03.396Z,560.00
2024-01-11T00:19:03.350Z,559.00
2024-01-11T00:20:03.249Z,559.00
2024-01-11T00:21:03.184Z,558.00
2024-01-11T00:22:03.160Z,558.00
2024-01-11T00:23:03.220Z,560.00
2024-01-11T00:24:03.141Z,555.00
2024-01-11T00:25:03.118Z,556.00
2024-01-11T00:26:03.153Z,558.00
2024-01-11T00:27:03.085Z,560.00
2024-01-11T00:28:03.095Z,561.00
2024-01-11T00:29:03.097Z,559.00
2024-01-11T00:30:03.039Z,557.00
2024-01-11T00:31:03.059Z,560.00
2024-01-11T00:32:03.077Z,560.00
2024-01-11T00:33:03.141Z,557.00
2024-01-11T00:34:03.122Z,558.00
2024-01-11T00:35:03.035Z,554.00
2024-01-11T00:36:02.964Z,554.00
2024-01-11T00:37:02.942Z,554.00
2024-01-11T00:38:02.949Z,556.00
2024-01-11T00:39:02.904Z,556.00
2024-01-11T00:40:02.899Z,558.00
2024-01-11T00:41:02.920Z,556.00
2024-01-11T00:42:02.847Z,553.00
2024-01-11T00:43:02.839Z,552.00
2024-01-11T00:44:02.838Z,556.00
2024-01-11T00:45:02.806Z,557.00
2024-01-11T00:46:02.786Z,559.00
2024-01-11T00:47:02.838Z,553.00
2024-01-11T00:48:02.876Z,551.00
2024-01-11T00:49:02.874Z,552.00
2024-01-11T00:50:02.746Z,554.00
2024-01-11T00:51:02.697Z,553.00
2024-01-11T00:52:02.658Z,554.00
2024-01-11T00:53:02.798Z,552.00
2024-01-11T00:54:02.623Z,554.00
2024-01-11T00:55:02.607Z,557.00
2024-01-11T00:56:02.652Z,563.00
2024-01-11T00:57:02.564Z,563.00
2024-01-11T00:58:02.554Z,559.00
2024-01-11T00:59:02.600Z,559.00
2024-01-11T01:00:02.564Z,557.00
2024-01-11T01:01:02.550Z,556.00
2024-01-11T01:02:02.530Z,555.00
2024-01-11T01:03:02.516Z,551.00
2024-01-11T01:04:02.519Z,551.00
2024-01-11T01:05:02.579Z,551.00
2024-01-11T01:06:02.573Z,553.00
2024-01-11T01:07:02.410Z,549.00
2024-01-11T01:08:02.463Z,548.00
2024-01-11T01:09:02.380Z,548.00
2024-01-11T01:10:02.371Z,546.00
2024-01-11T01:11:02.418Z,546.00
2024-01-11T01:12:02.349Z,549.00
2024-01-11T01:13:02.369Z,548.00
2024-01-11T01:14:02.370Z,547.00
2024-01-11T01:15:02.302Z,551.00
2024-01-11T01:16:02.289Z,553.00
2024-01-11T01:17:02.287Z,551.00
2024-01-11T01:18:02.536Z,548.00
2024-01-11T01:19:02.288Z,548.00
2024-01-11T01:20:02.340Z,551.00
2024-01-11T01:21:02.193Z,549.00
2024-01-11T01:22:02.200Z,547.00
2024-01-11T01:23:02.213Z,546.00
2024-01-11T01:24:02.167Z,545.00
2024-01-11T01:25:02.158Z,548.00
2024-01-11T01:26:04.130Z,550.00
2024-01-11T01:27:02.109Z,554.00
2024-01-11T01:28:02.126Z,557.00
2024-01-11T01:29:02.090Z,555.00
2024-01-11T01:30:02.069Z,552.00
2024-01-11T01:31:02.064Z,553.00
2024-01-11T01:32:02.054Z,553.00
2024-01-11T01:33:02.199Z,551.00
2024-01-11T01:34:02.043Z,553.00
2024-01-11T01:35:02.001Z,553.00
2024-01-11T01:36:01.942Z,552.00
2024-01-11T01:37:01.915Z,553.00
2024-01-11T01:38:01.980Z,552.00
2024-01-11T01:39:01.879Z,553.00
2024-01-11T01:40:01.907Z,550.00
2024-01-11T01:41:01.933Z,549.00
2024-01-11T01:42:01.852Z,552.00
2024-01-11T01:43:01.819Z,551.00
2024-01-11T01:44:01.832Z,555.00
2024-01-11T01:45:01.784Z,556.00
2024-01-11T01:46:01.796Z,553.00
2024-01-11T01:47:01.801Z,549.00
2024-01-11T01:48:01.868Z,547.00
2024-01-11T01:49:01.779Z,543.00
2024-01-11T01:50:01.741Z,545.00
2024-01-11T01:51:01.697Z,542.00
2024-01-11T01:52:01.654Z,540.00
2024-01-11T01:53:01.650Z,539.00
2024-01-11T01:54:01.613Z,540.00
2024-01-11T01:55:01.605Z,540.00
2024-01-11T01:56:01.658Z,538.00
2024-01-11T01:57:01.606Z,538.00
2024-01-11T01:58:01.568Z,538.00
2024-01-11T01:59:01.577Z,538.00
2024-01-11T02:00:01.561Z,535.00
2024-01-11T02:01:01.551Z,534.00
2024-01-11T02:02:01.526Z,535.00
2024-01-11T02:03:01.533Z,536.00
2024-01-11T02:04:01.486Z,537.00
2024-01-11T02:05:01.557Z,537.00
2024-01-11T02:06:01.514Z,534.00
2024-01-11T02:07:01.437Z,534.00
2024-01-11T02:08:01.475Z,533.00
2024-01-11T02:09:01.423Z,537.00
2024-01-11T02:10:01.395Z,537.00
2024-01-11T02:11:01.422Z,535.00
2024-01-11T02:12:01.365Z,538.00
2024-01-11T02:13:01.366Z,540.00
2024-01-11T02:14:01.384Z,539.00
2024-01-11T02:15:01.328Z,539.00
2024-01-11T02:16:01.323Z,541.00
2024-01-11T02:17:01.320Z,540.00
2024-01-11T02:18:01.373Z,541.00
2024-01-11T02:19:01.363Z,539.00
2024-01-11T02:20:01.332Z,536.00
2024-01-11T02:21:01.281Z,535.00
2024-01-11T02:22:01.246Z,536.00
2024-01-11T02:23:01.292Z,536.00
2024-01-11T02:24:01.218Z,535.00
2024-01-11T02:25:01.223Z,535.00
2024-01-11T02:26:01.249Z,534.00
2024-01-11T02:27:01.203Z,531.00
2024-01-11T02:28:01.197Z,531.00
2024-01-11T02:29:01.278Z,532.00
2024-01-11T02:30:01.154Z,533.00
2024-01-11T02:31:01.211Z,532.00
2024-01-11T02:32:01.161Z,534.00
2024-01-11T02:33:01.233Z,534.00
2024-01-11T02:34:01.213Z,537.00
2024-01-11T02:35:01.149Z,535.00
2024-01-11T02:36:01.129Z,533.00
2024-01-11T02:37:01.058Z,533.00
2024-01-11T02:38:01.104Z,531.00
2024-01-11T02:39:01.043Z,532.00
2024-01-11T02:40:01.086Z,533.00
2024-01-11T02:41:01.049Z,538.00
2024-01-11T02:42:01.042Z,534.00
2024-01-11T02:43:01.009Z,535.00
2024-01-11T02:44:01.021Z,534.00
2024-01-11T02:45:00.977Z,534.00
2024-01-11T02:46:00.984Z,536.00
2024-01-11T02:47:00.973Z,536.00
2024-01-11T02:48:01.216Z,536.00
2024-01-11T02:49:01.034Z,533.00
2024-01-11T02:50:00.978Z,532.00
2024-01-11T02:51:00.890Z,532.00
2024-01-11T02:52:00.866Z,531.00
2024-01-11T02:53:01.087Z,531.00
2024-01-11T02:54:00.847Z,531.00
2024-01-11T02:55:00.843Z,528.00
2024-01-11T02:56:03.303Z,532.00
2024-01-11T02:57:00.801Z,534.00
2024-01-11T02:58:00.788Z,531.00
2024-01-11T02:59:00.785Z,530.00
2024-01-11T03:00:00.782Z,530.00
2024-01-11T03:01:00.751Z,531.00
2024-01-11T03:02:00.747Z,533.00
2024-01-11T03:03:00.764Z,535.00
2024-01-11T03:04:00.827Z,533.00
2024-01-11T03:05:00.698Z,535.00
2024-01-11T03:06:00.711Z,532.00
2024-01-11T03:07:00.653Z,531.00
2024-01-11T03:08:00.652Z,532.00
2024-01-11T03:09:00.654Z,534.00
2024-01-11T03:10:00.597Z,535.00
2024-01-11T03:11:00.601Z,536.00
2024-01-11T03:12:00.558Z,536.00
2024-01-11T03:13:00.548Z,534.00
2024-01-11T03:14:00.576Z,533.00
2024-01-11T03:15:00.563Z,531.00
2024-01-11T03:16:00.511Z,530.00
2024-01-11T03:17:00.540Z,529.00
2024-01-11T03:18:00.630Z,527.00
2024-01-11T03:20:00.489Z,525.00
2024-01-11T03:21:00.445Z,523.00
2024-01-11T03:22:00.415Z,522.00
2024-01-11T03:23:00.467Z,520.00
2024-01-11T03:24:00.398Z,521.00
2024-01-11T03:25:00.383Z,525.00
2024-01-11T03:26:00.418Z,525.00
2024-01-11T03:27:00.370Z,523.00
2024-01-11T03:28:00.365Z,522.00
2024-01-11T03:29:00.371Z,525.00
2024-01-11T03:30:00.373Z,530.00
2024-01-11T03:31:00.381Z,532.00
2024-01-11T03:32:00.404Z,532.00
2024-01-11T03:33:00.609Z,532.00
2024-01-11T03:34:00.462Z,527.00
2024-01-11T03:35:00.360Z,529.00
2024-01-11T03:36:00.273Z,526.00
2024-01-11T03:37:00.237Z,524.00
2024-01-11T03:38:00.313Z,521.00
2024-01-11T03:39:00.250Z,524.00
2024-01-11T03:40:00.257Z,526.00
2024-01-11T03:41:00.233Z,522.00
2024-01-11T03:42:00.177Z,521.00
2024-01-11T03:43:00.182Z,520.00
2024-01-11T03:44:00.290Z,519.00
2024-01-11T03:45:00.270Z,519.00
2024-01-11T03:46:00.254Z,520.00
2024-01-11T03:47:00.304Z,520.00
2024-01-11T03:48:00.287Z,518.00
2024-01-11T03:49:00.280Z,517.00
2024-01-11T03:50:00.312Z,516.00
2024-01-11T03:51:00.216Z,515.00
2024-01-11T03:52:00.172Z,516.00
2024-01-11T03:53:00.211Z,518.00
2024-01-11T03:54:00.215Z,519.00
2024-01-11T03:55:00.182Z,519.00
2024-01-11T03:56:00.175Z,520.00
2024-01-11T03:57:00.133Z,518.00
2024-01-11T03:58:00.112Z,518.00
2024-01-11T03:59:00.111Z,516.00
2024-01-11T04:00:00.127Z,514.00
2024-01-11T04:01:00.120Z,514.00
2024-01-11T04:02:00.172Z,512.00
2024-01-11T04:03:00.057Z,509.00
2024-01-11T04:04:00.152Z,508.00
2024-01-11T04:05:00.122Z,511.00
2024-01-11T04:06:00.081Z,510.00
2024-01-11T04:06:59.998Z,510.00
2024-01-11T04:08:00.074Z,512.00
2024-01-11T04:08:59.968Z,509.00
2024-01-11T04:09:59.964Z,511.00
2024-01-11T04:10:59.985Z,508.00
2024-01-11T04:11:59.945Z,513.00
2024-01-11T04:12:59.944Z,515.00
2024-01-11T04:13:59.984Z,513.00
2024-01-11T04:14:59.906Z,511.00
2024-01-11T04:15:59.890Z,514.00
2024-01-11T04:16:59.889Z,513.00
2024-01-11T04:17:59.943Z,513.00
2024-01-11T04:18:59.940Z,515.00
2024-01-11T04:19:59.843Z,514.00
2024-01-11T04:20:59.819Z,512.00
2024-01-11T04:21:59.783Z,512.00
2024-01-11T04:22:59.798Z,515.00
2024-01-11T04:23:59.759Z,516.00
2024-01-11T04:24:59.770Z,516.00
2024-01-11T04:25:59.743Z,514.00
2024-01-11T04:26:59.717Z,512.00
2024-01-11T04:27:59.681Z,511.00
2024-01-11T04:29:00.645Z,509.00
2024-01-11T04:29:59.642Z,514.00
2024-01-11T04:30:59.690Z,514.00
2024-01-11T04:31:59.698Z,513.00
2024-01-11T04:32:59.679Z,511.00
2024-01-11T04:33:59.675Z,512.00
2024-01-11T04:34:59.636Z,514.00
2024-01-11T04:35:59.573Z,514.00
2024-01-11T04:36:59.512Z,513.00
2024-01-11T04:37:59.568Z,513.00
2024-01-11T04:38:59.471Z,514.00
2024-01-11T04:39:59.459Z,515.00
2024-01-11T04:40:59.455Z,514.00
2024-01-11T04:42:11.587Z,509.00
2024-01-11T04:43:11.541Z,503.00
2024-01-11T04:44:11.567Z,501.00
2024-01-11T04:45:11.518Z,501.00
2024-01-11T04:46:11.533Z,501.00
2024-01-11T04:47:11.513Z,499.00
2024-01-11T04:48:11.542Z,499.00
2024-01-11T04:49:11.598Z,499.00
2024-01-11T04:50:11.473Z,497.00
2024-01-11T04:51:11.455Z,499.00
2024-01-11T04:52:11.427Z,500.00
2024-01-11T04:53:11.466Z,497.00
2024-01-11T04:54:11.432Z,497.00
2024-01-11T04:55:11.397Z,497.00
2024-01-11T04:56:11.420Z,496.00
2024-01-11T04:57:11.372Z,494.00
2024-01-11T04:58:11.381Z,490.00
2024-01-11T04:59:11.450Z,488.00
2024-01-11T05:00:11.370Z,490.00
2024-01-11T05:01:11.343Z,493.00
2024-01-11T05:02:11.322Z,493.00
2024-01-11T05:03:11.303Z,495.00
2024-01-11T05:04:11.301Z,495.00
2024-01-11T05:05:11.297Z,493.00
2024-01-11T05:06:11.259Z,496.00
2024-01-11T05:07:11.243Z,499.00
2024-01-11T05:08:11.223Z,501.00
2024-01-11T05:09:11.209Z,503.00
2024-01-11T05:10:11.178Z,507.00
2024-01-11T05:11:11.218Z,504.00
2024-01-11T05:12:11.147Z,501.00
2024-01-11T05:13:11.683Z,501.00
2024-01-11T05:14:11.167Z,501.00
2024-01-11T05:15:11.116Z,501.00
2024-01-11T05:16:11.093Z,502.00
2024-01-11T05:17:11.140Z,504.00
2024-01-11T05:18:11.209Z,505.00
2024-01-11T05:19:11.207Z,506.00
2024-01-11T05:20:11.190Z,505.00
2024-01-11T05:21:11.157Z,503.00
2024-01-11T05:22:11.159Z,503.00
2024-01-11T05:23:11.209Z,504.00
2024-01-11T05:24:12.342Z,500.00
2024-01-11T05:25:11.244Z,501.00
2024-01-11T05:26:11.318Z,501.00
2024-01-11T05:27:11.318Z,502.00
2024-01-11T05:28:11.339Z,502.00
2024-01-11T05:29:11.421Z,506.00
2024-01-11T05:30:11.478Z,506.00
2024-01-11T05:31:11.636Z,507.00
2024-01-11T05:32:11.748Z,507.00
2024-01-11T05:33:11.672Z,507.00
2024-01-11T05:34:11.597Z,508.00
2024-01-11T05:35:11.639Z,508.00
2024-01-11T05:36:11.590Z,504.00
2024-01-11T05:37:11.562Z,508.00
2024-01-11T05:38:11.552Z,507.00
2024-01-11T05:39:11.541Z,505.00
2024-01-11T05:40:11.497Z,503.00
2024-01-11T05:41:11.571Z,501.00
2024-01-11T05:42:11.471Z,499.00
2024-01-11T05:43:11.501Z,496.00
2024-01-11T05:44:11.468Z,498.00
2024-01-11T05:45:11.444Z,501.00
2024-01-11T05:46:11.423Z,505.00
2024-01-11T05:47:11.432Z,505.00
2024-01-11T05:48:11.429Z,504.00
2024-01-11T05:49:11.427Z,503.00
2024-01-11T05:50:11.471Z,505.00
2024-01-11T05:51:11.401Z,507.00
2024-01-11T05:52:11.380Z,510.00
2024-01-11T05:53:11.441Z,509.00
2024-01-11T05:54:11.380Z,508.00
2024-01-11T05:55:11.398Z,504.00
2024-01-11T05:56:11.875Z,508.00
2024-01-11T05:57:11.349Z,511.00
2024-01-11T05:58:11.333Z,508.00
2024-01-11T05:59:11.375Z,508.00
2024-01-11T06:00:11.367Z,507.00
2024-01-11T06:01:11.456Z,508.00
2024-01-11T06:02:11.294Z,507.00
2024-01-11T06:03:11.330Z,505.00
2024-01-11T06:04:11.268Z,503.00
2024-01-11T06:05:11.324Z,502.00
2024-01-11T06:06:11.414Z,503.00
2024-01-11T06:07:11.231Z,502.00
2024-01-11T06:08:11.260Z,502.00
2024-01-11T06:09:11.222Z,502.00
2024-01-11T06:10:11.201Z,503.00
2024-01-11T06:11:11.219Z,503.00
2024-01-11T06:12:11.178Z,503.00
2024-01-11T06:13:11.181Z,499.00
2024-01-11T06:14:11.218Z,497.00
2024-01-11T06:15:11.168Z,501.00
2024-01-11T06:16:13.404Z,503.00
2024-01-11T06:17:11.373Z,502.00
2024-01-11T06:18:11.429Z,502.00
2024-01-11T06:19:11.395Z,499.00
2024-01-11T06:20:11.361Z,497.00
2024-01-11T06:21:11.287Z,495.00
2024-01-11T06:22:11.300Z,494.00
2024-01-11T06:23:11.322Z,495.00
2024-01-11T06:24:11.255Z,499.00
2024-01-11T06:25:11.234Z,497.00
2024-01-11T06:26:11.255Z,499.00
2024-01-11T06:27:11.216Z,504.00
2024-01-11T06:28:11.204Z,505.00
2024-01-11T06:29:11.272Z,505.00
2024-01-11T06:30:11.210Z,503.00
2024-01-11T06:31:11.204Z,501.00
2024-01-11T06:32:11.306Z,503.00
2024-01-11T06:33:11.886Z,571.00
2024-01-11T06:34:11.228Z,579.00
2024-01-11T06:35:11.239Z,608.00
2024-01-11T06:36:11.151Z,688.00
2024-01-11T06:37:11.092Z,766.00
2024-01-11T06:38:11.100Z,720.00
2024-01-11T06:39:11.049Z,739.00
2024-01-11T06:40:11.054Z,896.00
2024-01-11T06:41:11.113Z,789.00
2024-01-11T06:42:10.999Z,878.00
2024-01-11T06:43:12.099Z,867.00
2024-01-11T06:44:11.007Z,873.00
2024-01-11T06:45:10.906Z,920.00
2024-01-11T06:46:10.895Z,898.00
2024-01-11T06:47:10.883Z,888.00
2024-01-11T06:48:11.026Z,883.00
2024-01-11T06:49:10.962Z,875.00
2024-01-11T06:50:10.860Z,849.00
2024-01-11T06:51:10.801Z,870.00
2024-01-11T06:52:10.731Z,950.00
2024-01-11T06:53:10.807Z,965.00
2024-01-11T06:54:10.790Z,999.00
2024-01-11T06:55:10.800Z,993.00
2024-01-11T06:56:10.862Z,1058.00
2024-01-11T06:57:10.890Z,1067.00
2024-01-11T06:58:10.922Z,1063.00
2024-01-11T06:59:10.972Z,1061.00
2024-01-11T07:00:10.972Z,1072.00
2024-01-11T07:01:11.133Z,1081.00
2024-01-11T07:02:11.057Z,1097.00
2024-01-11T07:03:11.082Z,1121.00
2024-01-11T07:04:11.175Z,1095.00
2024-01-11T07:05:11.170Z,1078.00
2024-01-11T07:06:11.225Z,1081.00
2024-01-11T07:07:11.160Z,1066.00
2024-01-11T07:08:11.167Z,1076.00
2024-01-11T07:09:11.101Z,1077.00
2024-01-11T07:10:11.039Z,1161.00
2024-01-11T07:11:11.022Z,1168.00
2024-01-11T07:12:10.985Z,1183.00
2024-01-11T07:13:10.936Z,1202.00
2024-01-11T07:14:10.935Z,1229.00
2024-01-11T07:15:10.851Z,1256.00
2024-01-11T07:16:12.415Z,1254.00
2024-01-11T07:17:10.769Z,1253.00
2024-01-11T07:18:10.782Z,1259.00
2024-01-11T07:19:10.721Z,1268.00
2024-01-11T07:20:10.647Z,1261.00
2024-01-11T07:21:10.579Z,1280.00
2024-01-11T07:22:10.536Z,1323.00
2024-01-11T07:23:10.493Z,1340.00
2024-01-11T07:24:10.434Z,1335.00
2024-01-11T07:25:10.392Z,1341.00
2024-01-11T07:26:10.382Z,1346.00
2024-01-11T07:27:10.339Z,1357.00
2024-01-11T07:28:10.298Z,1365.00
2024-01-11T07:29:10.301Z,1367.00
2024-01-11T07:30:10.238Z,1370.00
2024-01-11T07:31:10.200Z,1378.00
2024-01-11T07:32:10.225Z,1392.00
2024-01-11T07:33:11.032Z,1412.00
2024-01-11T07:34:10.077Z,1410.00
2024-01-11T07:35:13.321Z,1423.00
2024-01-11T07:36:11.075Z,1433.00
2024-01-11T07:37:09.899Z,1437.00
2024-01-11T07:38:09.938Z,1444.00
2024-01-11T07:39:10.577Z,1447.00
2024-01-11T07:40:09.760Z,1454.00
2024-01-11T07:41:09.756Z,1501.00
2024-01-11T07:42:09.719Z,1576.00
2024-01-11T07:43:09.662Z,1511.00
2024-01-11T07:44:09.592Z,1453.00
2024-01-11T07:45:09.557Z,1414.00
2024-01-11T07:46:09.511Z,1419.00
2024-01-11T07:47:09.518Z,1411.00
2024-01-11T07:48:09.519Z,1442.00
2024-01-11T07:49:09.549Z,1466.00
2024-01-11T07:50:09.455Z,1495.00
2024-01-11T07:51:09.360Z,1516.00
2024-01-11T07:52:09.321Z,1557.00
2024-01-11T07:53:09.239Z,1601.00
2024-01-11T07:54:09.154Z,1631.00
2024-01-11T07:55:09.145Z,1640.00
2024-01-11T07:56:09.214Z,1658.00
2024-01-11T07:57:09.058Z,1661.00
2024-01-11T07:58:08.994Z,1686.00
2024-01-11T07:59:08.988Z,1698.00
2024-01-11T08:00:08.888Z,1716.00
2024-01-11T08:01:08.889Z,1716.00
2024-01-11T08:02:08.910Z,1720.00
2024-01-11T08:03:08.798Z,1722.00
2024-01-11T08:04:08.763Z,1731.00
2024-01-11T08:05:08.744Z,1773.00
2024-01-11T08:06:08.848Z,1785.00
2024-01-11T08:07:08.582Z,1790.00
2024-01-11T08:08:08.526Z,1790.00
2024-01-11T08:09:08.520Z,1802.00
2024-01-11T08:10:08.389Z,1820.00
2024-01-11T08:11:08.437Z,1832.00
2024-01-11T08:12:08.932Z,1860.00
2024-01-11T08:13:08.262Z,1880.00
2024-01-11T08:14:08.248Z,1898.00
2024-01-11T08:15:08.136Z,1978.00
2024-01-11T08:16:08.178Z,1968.00
2024-01-11T08:17:08.121Z,1976.00
2024-01-11T08:18:08.068Z,1982.00
2024-01-11T08:19:08.051Z,1994.00
2024-01-11T08:20:07.934Z,2011.00
2024-01-11T08:21:07.984Z,2034.00
2024-01-11T08:22:07.827Z,2053.00
2024-01-11T08:23:07.855Z,2065.00
2024-01-11T08:24:07.736Z,2110.00
2024-01-11T08:25:07.715Z,2121.00
2024-01-11T08:26:07.799Z,2126.00
2024-01-11T08:27:07.765Z,2121.00
2024-01-11T08:28:07.740Z,2115.00
2024-01-11T08:29:07.786Z,2121.00
2024-01-11T08:30:07.803Z,2129.00
2024-01-11T08:31:07.825Z,2130.00
2024-01-11T08:32:19.162Z,2132.00
2024-01-11T08:33:08.828Z,2141.00
2024-01-11T08:34:07.868Z,2160.00
2024-01-11T08:35:07.630Z,2159.00
2024-01-11T08:36:08.634Z,2170.00
2024-01-11T08:37:07.483Z,2202.00
2024-01-11T08:38:07.497Z,2172.00
2024-01-11T08:39:07.383Z,2059.00
2024-01-11T08:40:07.325Z,1600.00
2024-01-11T08:41:07.333Z,1448.00
2024-01-11T08:42:07.278Z,1375.00
2024-01-11T08:43:07.275Z,1338.00
2024-01-11T08:44:07.313Z,1357.00
2024-01-11T08:45:07.294Z,1344.00
2024-01-11T08:46:07.314Z,1440.00
2024-01-11T08:47:07.330Z,1453.00
2024-01-11T08:48:07.443Z,1492.00
2024-01-11T08:49:07.379Z,1495.00
2024-01-11T08:50:07.628Z,1473.00
2024-01-11T08:51:07.304Z,1473.00
2024-01-11T08:52:07.283Z,1484.00
2024-01-11T08:53:07.347Z,1517.00
2024-01-11T08:54:08.259Z,1529.00
2024-01-11T08:55:07.233Z,1546.00
2024-01-11T08:56:07.224Z,1504.00
2024-01-11T08:57:07.067Z,1522.00
2024-01-11T08:58:06.982Z,1541.00
2024-01-11T08:59:06.973Z,1562.00
2024-01-11T09:00:06.892Z,1573.00
2024-01-11T09:01:06.901Z,1612.00
2024-01-11T09:02:14.328Z,1599.00
2024-01-11T09:03:07.749Z,1597.00
2024-01-11T09:04:06.671Z,1600.00
2024-01-11T09:05:06.564Z,1611.00
2024-01-11T09:06:06.613Z,1628.00
2024-01-11T09:07:06.443Z,1647.00
2024-01-11T09:08:06.409Z,1637.00
2024-01-11T09:09:06.289Z,1637.00
2024-01-11T09:10:06.294Z,1633.00
2024-01-11T09:11:06.214Z,1622.00
2024-01-11T09:12:06.150Z,1629.00
2024-01-11T09:13:06.046Z,1655.00
2024-01-11T09:14:05.995Z,1661.00
2024-01-11T09:15:05.945Z,1616.00
2024-01-11T09:16:05.840Z,1611.00
2024-01-11T09:17:05.838Z,1619.00
2024-01-11T09:18:05.991Z,1640.00
2024-01-11T09:19:05.741Z,1620.00
2024-01-11T09:20:05.641Z,1660.00
2024-01-11T09:21:05.517Z,1592.00
2024-01-11T09:22:05.461Z,1592.00
2024-01-11T09:23:05.484Z,1596.00
2024-01-11T09:24:05.327Z,1598.00
2024-01-11T09:25:05.294Z,1617.00
2024-01-11T09:26:05.255Z,1650.00
2024-01-11T09:27:05.223Z,1648.00
2024-01-11T09:28:05.088Z,1620.00
2024-01-11T09:29:05.060Z,1543.00
2024-01-11T09:30:04.980Z,1550.00
2024-01-11T09:31:05.002Z,1549.00
2024-01-11T09:33:41.780Z,1536.00
2024-01-11T09:34:41.355Z,1516.00
2024-01-11T09:35:41.273Z,1567.00
2024-01-11T09:36:41.238Z,1600.00
2024-01-11T09:37:41.129Z,1978.00
2024-01-11T09:38:41.241Z,1613.00
2024-01-11T09:39:41.049Z,1580.00
2024-01-11T09:40:40.958Z,1471.00
2024-01-11T09:41:40.989Z,1532.00
2024-01-11T09:42:40.826Z,1555.00
2024-01-11T09:43:40.844Z,1547.00
2024-01-11T09:44:41.106Z,1540.00
2024-01-11T09:45:40.662Z,1517.00
2024-01-11T09:46:40.626Z,1508.00
2024-01-11T09:47:40.635Z,1419.00
2024-01-11T09:48:40.642Z,1422.00
2024-01-11T09:49:40.501Z,1458.00
2024-01-11T09:50:40.435Z,1451.00
2024-01-11T09:51:40.305Z,1453.00
2024-01-11T09:52:40.292Z,1467.00
2024-01-11T09:53:40.281Z,1565.00
2024-01-11T09:54:40.157Z,1575.00
2024-01-11T09:55:40.095Z,1587.00
2024-01-11T09:56:40.264Z,1674.00
2024-01-11T09:57:39.996Z,1675.00
2024-01-11T09:58:40.009Z,1677.00
2024-01-11T09:59:39.927Z,1694.00
2024-01-11T10:00:39.891Z,1688.00
2024-01-11T10:01:39.812Z,1695.00
2024-01-11T10:02:39.879Z,1704.00
2024-01-11T10:03:39.798Z,1747.00
2024-01-11T10:04:39.771Z,1762.00
2024-01-11T10:05:39.742Z,1795.00
2024-01-11T10:06:39.720Z,1726.00
2024-01-11T10:07:39.710Z,1686.00
2024-01-11T10:08:39.814Z,1614.00
2024-01-11T10:09:39.640Z,1624.00
2024-01-11T10:10:40.947Z,1653.00
2024-01-11T10:11:39.662Z,1670.00
2024-01-11T10:12:39.643Z,1514.00
2024-01-11T10:13:39.577Z,1516.00
2024-01-11T10:14:39.558Z,1514.00
2024-01-11T10:15:39.516Z,1484.00
2024-01-11T10:16:39.415Z,1442.00
2024-01-11T10:17:39.553Z,1440.00
2024-01-11T10:18:39.596Z,1427.00
2024-01-11T10:19:39.493Z,1426.00
2024-01-11T10:20:39.357Z,1414.00
2024-01-11T10:21:39.200Z,1409.00
2024-01-11T10:22:39.144Z,1372.00
2024-01-11T10:23:39.139Z,1365.00
2024-01-11T10:24:39.049Z,1357.00
2024-01-11T10:25:38.987Z,1351.00
2024-01-11T10:26:39.013Z,1329.00
2024-01-11T10:27:38.899Z,1308.00
2024-01-11T10:28:39.104Z,1284.00
2024-01-11T10:29:38.837Z,1281.00
2024-01-11T10:30:38.862Z,1267.00
2024-01-11T10:31:38.725Z,1254.00
2024-01-11T10:32:38.796Z,1242.00
2024-01-11T10:33:38.693Z,1228.00
2024-01-11T10:34:38.568Z,1222.00
2024-01-11T10:35:38.599Z,1203.00
2024-01-11T10:36:38.497Z,1193.00
2024-01-11T10:37:38.468Z,1183.00
2024-01-11T10:38:38.544Z,1184.00
2024-01-11T10:39:38.400Z,1187.00
2024-01-11T10:40:38.391Z,1264.00
2024-01-11T10:41:38.383Z,1430.00
2024-01-11T10:42:38.202Z,1312.00
2024-01-11T10:43:38.274Z,1332.00
2024-01-11T10:44:38.132Z,1335.00
2024-01-11T10:45:38.067Z,1265.00
2024-01-11T10:46:38.038Z,1253.00
2024-01-11T10:47:37.989Z,1218.00
2024-01-11T10:48:38.026Z,1182.00
2024-01-11T10:49:37.796Z,1174.00
2024-01-11T10:50:37.832Z,1168.00
2024-01-11T10:51:37.769Z,1162.00
2024-01-11T10:52:37.771Z,1179.00
2024-01-11T10:53:37.846Z,1233.00
2024-01-11T10:54:37.823Z,1251.00
2024-01-11T10:55:37.745Z,1255.00
2024-01-11T10:56:37.818Z,1262.00
2024-01-11T10:57:37.710Z,1266.00
2024-01-11T10:58:37.711Z,1284.00
2024-01-11T10:59:37.752Z,1281.00
2024-01-11T11:00:37.703Z,1284.00
2024-01-11T11:01:37.657Z,1286.00
2024-01-11T11:02:37.727Z,1285.00
2024-01-11T11:03:37.661Z,1297.00
2024-01-11T11:04:37.653Z,1298.00
2024-01-11T11:05:37.767Z,1304.00
2024-01-11T11:06:37.722Z,1302.00
2024-01-11T11:07:37.554Z,1309.00
2024-01-11T11:08:37.551Z,1317.00
2024-01-11T11:09:37.494Z,1326.00
2024-01-11T11:10:37.520Z,1334.00
2024-01-11T11:11:37.488Z,1342.00
2024-01-11T11:12:37.388Z,1364.00
2024-01-11T11:13:37.336Z,1360.00
2024-01-11T11:14:37.248Z,1355.00
2024-01-11T11:15:37.153Z,1377.00
2024-01-11T11:16:37.063Z,1383.00
2024-01-11T11:17:37.060Z,1387.00
2024-01-11T11:18:37.144Z,1394.00
2024-01-11T11:19:36.869Z,1409.00
2024-01-11T11:20:36.897Z,1447.00
2024-01-11T11:21:36.694Z,1443.00
2024-01-11T11:22:36.632Z,1429.00
2024-01-11T11:23:36.531Z,1433.00
2024-01-11T11:24:36.489Z,1423.00
2024-01-11T11:25:36.407Z,1488.00
2024-01-11T11:26:36.356Z,1493.00
2024-01-11T11:27:36.225Z,1477.00
2024-01-11T11:28:36.171Z,1460.00
2024-01-11T11:29:36.123Z,1463.00
2024-01-11T11:30:36.038Z,1467.00
2024-01-11T11:31:35.946Z,1474.00
2024-01-11T11:32:36.021Z,1489.00
2024-01-11T11:33:36.028Z,1485.00
2024-01-11T11:34:35.855Z,1479.00
2024-01-11T11:35:35.829Z,1476.00
2024-01-11T11:36:35.776Z,1507.00
2024-01-11T11:37:35.702Z,1546.00
2024-01-11T11:38:35.678Z,1307.00
2024-01-11T11:39:35.545Z,1234.00
2024-01-11T11:40:35.452Z,1219.00
2024-01-11T11:41:35.509Z,1185.00
2024-01-11T11:42:35.954Z,1093.00
2024-01-11T11:43:35.259Z,1162.00
2024-01-11T11:44:35.180Z,1175.00
2024-01-11T11:45:35.109Z,1189.00
2024-01-11T11:46:34.996Z,1191.00
2024-01-11T11:47:35.031Z,1194.00
2024-01-11T11:48:34.955Z,1196.00
2024-01-11T11:49:34.924Z,1192.00
2024-01-11T11:50:34.897Z,1121.00
2024-01-11T11:51:34.823Z,1139.00
2024-01-11T11:52:34.813Z,1148.00
2024-01-11T11:53:34.855Z,1157.00
2024-01-11T11:54:34.738Z,1181.00
2024-01-11T11:55:34.659Z,1182.00
2024-01-11T11:56:34.609Z,1142.00
2024-01-11T11:57:34.593Z,1153.00
2024-01-11T11:58:34.427Z,1148.00
2024-01-11T11:59:34.381Z,1145.00
2024-01-11T12:00:34.288Z,1105.00
2024-01-11T12:01:34.217Z,1111.00
2024-01-11T12:02:34.232Z,1150.00
2024-01-11T12:03:35.268Z,1165.00
2024-01-11T12:04:34.188Z,1185.00
2024-01-11T12:05:34.295Z,1199.00
2024-01-11T12:06:34.212Z,1209.00
2024-01-11T12:07:34.144Z,1220.00
2024-01-11T12:08:34.178Z,1242.00
2024-01-11T12:09:34.177Z,1268.00
2024-01-11T12:10:34.000Z,1272.00
2024-01-11T12:11:33.988Z,1283.00
2024-01-11T12:12:33.902Z,1290.00
2024-01-11T12:13:33.849Z,1304.00
2024-01-11T12:14:33.725Z,1319.00
2024-01-11T12:15:33.642Z,1323.00
2024-01-11T12:16:33.563Z,1332.00
2024-01-11T12:17:33.561Z,1347.00
2024-01-11T12:18:33.523Z,1364.00
2024-01-11T12:19:33.414Z,1390.00
2024-01-11T12:20:33.352Z,1401.00